createdAt,value
2023-01-09T00:00:55.523Z,545.3
2023-01-09T00:02:02.131Z,543.1
2023-01-09T00:03:08.628Z,547.4
2023-01-09T00:04:15.178Z,544.2
2023-01-09T00:05:21.715Z,543.4
2023-01-09T00:06:28.256Z,547.3
2023-01-09T00:07:34.804Z,541.8
2023-01-09T00:08:41.360Z,549.7
2023-01-09T00:09:47.899Z,539.2
2023-01-09T00:10:54.453Z,542.5
2023-01-09T00:12:01.001Z,544.2
2023-01-09T00:13:07.727Z,548.2
2023-01-09T00:14:14.519Z,549.5
2023-01-09T00:15:21.301Z,550.5
2023-01-09T00:16:28.091Z,544.8
2023-01-09T00:17:34.873Z,541
2023-01-09T00:18:41.682Z,548.1
2023-01-09T00:19:48.458Z,549.3
2023-01-09T00:20:55.236Z,544
2023-01-09T00:22:02.025Z,544.9
2023-01-09T00:23:08.805Z,544.9
2023-01-09T00:24:15.589Z,547.9
2023-01-09T00:25:22.399Z,547.6
2023-01-09T00:26:29.243Z,546.3
2023-01-09T00:27:36.411Z,545
2023-01-09T00:29:14.395Z,544.1
2023-01-09T00:30:20.902Z,545.3
2023-01-09T00:31:27.391Z,543.1
2023-01-09T00:32:33.947Z,546.1
2023-01-09T00:33:40.497Z,549.1
2023-01-09T00:34:47.148Z,546.7
2023-01-09T00:35:53.612Z,547.7
2023-01-09T00:37:00.228Z,541.9
2023-01-09T00:38:06.719Z,546.3
2023-01-09T00:39:13.241Z,541.1
2023-01-09T00:40:19.788Z,550
2023-01-09T00:41:26.244Z,541.2
2023-01-09T00:42:32.802Z,545.5
2023-01-09T00:43:39.362Z,547.3
2023-01-09T00:44:45.921Z,544.9
2023-01-09T00:45:52.467Z,546.4
2023-01-09T00:46:59.088Z,543.8
2023-01-09T00:48:05.513Z,539.4
2023-01-09T00:49:12.070Z,545.1
2023-01-09T00:50:18.718Z,541
2023-01-09T00:51:25.185Z,542.5
2023-01-09T00:52:31.866Z,542.8
2023-01-09T00:53:38.328Z,551
2023-01-09T00:54:44.833Z,545.5
2023-01-09T00:55:51.393Z,540.6
2023-01-09T00:56:58.130Z,544.9
2023-01-09T00:58:04.914Z,546.5
2023-01-09T00:59:11.704Z,549.4
2023-01-09T01:00:18.500Z,546.7
2023-01-09T01:01:25.315Z,549.8
2023-01-09T01:02:32.080Z,544.2
2023-01-09T01:03:38.857Z,544.5
2023-01-09T01:04:45.659Z,540
2023-01-09T01:05:52.440Z,548.3
2023-01-09T01:06:59.242Z,541.6
2023-01-09T01:08:06.035Z,548.4
2023-01-09T01:09:12.824Z,540.2
2023-01-09T01:10:19.608Z,543.4
2023-01-09T01:13:37.784Z,545.2
2023-01-09T01:15:12.773Z,542.1
2023-01-09T01:16:19.591Z,547.8
2023-01-09T01:17:26.368Z,545.9
2023-01-09T01:18:33.162Z,548.4
2023-01-09T01:19:40.005Z,552.1
2023-01-09T01:20:46.732Z,549.1
2023-01-09T01:21:53.521Z,551
2023-01-09T01:23:00.367Z,549.5
2023-01-09T01:24:07.106Z,549.1
2023-01-09T01:25:13.900Z,549.5
2023-01-09T01:26:20.691Z,546.9
2023-01-09T01:27:27.481Z,541.6
2023-01-09T01:28:34.265Z,541.4
2023-01-09T01:29:41.077Z,543.3
2023-01-09T01:30:47.839Z,545.9
2023-01-09T01:31:54.644Z,545.1
2023-01-09T01:33:01.425Z,546.5
2023-01-09T01:34:08.213Z,543
2023-01-09T01:35:15.012Z,541
2023-01-09T01:36:21.807Z,549.6
2023-01-09T01:37:28.637Z,544.8
2023-01-09T01:38:35.371Z,550.2
2023-01-09T01:39:42.170Z,547.1
2023-01-09T01:40:48.951Z,551.7
2023-01-09T01:41:55.734Z,548.1
2023-01-09T01:43:03.065Z,551.8
2023-01-09T01:44:41.179Z,549.3
2023-01-09T01:45:47.984Z,548.7
2023-01-09T01:46:54.785Z,548.1
2023-01-09T01:48:01.577Z,550.8
2023-01-09T01:49:08.342Z,551.4
2023-01-09T01:50:15.127Z,550.4
2023-01-09T01:51:21.912Z,541.1
2023-01-09T01:52:28.726Z,548
2023-01-09T01:53:35.505Z,543.7
2023-01-09T01:54:42.294Z,546.9
2023-01-09T01:55:49.084Z,543.8
2023-01-09T01:56:55.871Z,550.7
2023-01-09T01:58:02.666Z,545.8
2023-01-09T01:59:09.512Z,543.3
2023-01-09T02:00:16.295Z,544.8
2023-01-09T02:01:22.965Z,548.2
2023-01-09T02:02:29.710Z,547.8
2023-01-09T02:03:36.496Z,546.4
2023-01-09T02:04:43.241Z,549.2
2023-01-09T02:05:49.957Z,547.6
2023-01-09T02:06:56.693Z,549.4
2023-01-09T02:08:03.482Z,545.5
2023-01-09T02:09:10.274Z,545.7
2023-01-09T02:10:17.073Z,551.2
2023-01-09T02:11:23.851Z,550.5
2023-01-09T02:13:36.136Z,546.3
2023-01-09T02:14:42.901Z,547.8
2023-01-09T02:15:50.162Z,545.3
2023-01-09T02:17:28.169Z,543.8
2023-01-09T02:18:34.705Z,549.6
2023-01-09T02:19:41.248Z,551.4
2023-01-09T02:20:47.795Z,544.1
2023-01-09T02:21:54.336Z,545.7
2023-01-09T02:23:00.883Z,547.9
2023-01-09T02:24:07.442Z,546.6
2023-01-09T02:25:14.046Z,548.4
2023-01-09T02:26:20.540Z,541
2023-01-09T02:27:27.109Z,549
2023-01-09T02:28:33.702Z,548.8
2023-01-09T02:29:40.260Z,541.2
2023-01-09T02:30:46.755Z,544.9
2023-01-09T02:31:53.280Z,548.8
2023-01-09T02:32:59.861Z,545
2023-01-09T02:34:06.391Z,543.4
2023-01-09T02:35:12.921Z,547
2023-01-09T02:36:19.466Z,544.8
2023-01-09T02:37:26.014Z,543.7
2023-01-09T02:38:32.557Z,546.2
2023-01-09T02:39:39.160Z,541
2023-01-09T02:40:45.643Z,545.6
2023-01-09T02:41:52.321Z,543.4
2023-01-09T02:42:58.768Z,550
2023-01-09T02:44:05.315Z,548.4
2023-01-09T02:45:12.022Z,540.8
2023-01-09T02:46:18.811Z,543.5
2023-01-09T02:47:25.590Z,546
2023-01-09T02:48:32.471Z,543.4
2023-01-09T02:49:39.154Z,545
2023-01-09T02:50:45.933Z,544.6
2023-01-09T02:51:52.710Z,542.8
2023-01-09T02:52:59.507Z,546.9
2023-01-09T02:54:06.292Z,545.7
2023-01-09T02:55:13.068Z,544
2023-01-09T02:56:19.864Z,548.2
2023-01-09T02:57:26.797Z,547.2
2023-01-09T02:58:33.404Z,543.4
2023-01-09T03:01:51.592Z,548.7
2023-01-09T03:03:29.615Z,539.2
2023-01-09T03:04:36.164Z,542.6
2023-01-09T03:05:42.699Z,542.8
2023-01-09T03:06:49.271Z,544.6
2023-01-09T03:07:55.804Z,547.7
2023-01-09T03:09:02.362Z,541.9
2023-01-09T03:10:08.893Z,547.3
2023-01-09T03:11:15.431Z,541.9
2023-01-09T03:12:21.991Z,542.4
2023-01-09T03:13:28.551Z,541.5
2023-01-09T03:14:35.095Z,538.5
2023-01-09T03:15:41.633Z,545.1
2023-01-09T03:16:48.183Z,546.1
2023-01-09T03:17:54.774Z,544.3
2023-01-09T03:19:01.329Z,540.5
2023-01-09T03:20:07.809Z,541.5
2023-01-09T03:21:14.355Z,540.4
2023-01-09T03:22:20.903Z,544.7
2023-01-09T03:23:27.512Z,540
2023-01-09T03:24:34.001Z,541
2023-01-09T03:25:40.549Z,548.6
2023-01-09T03:26:47.156Z,535.2
2023-01-09T03:27:53.641Z,539.6
2023-01-09T03:29:00.190Z,544.9
2023-01-09T03:30:06.746Z,542.6
2023-01-09T03:31:13.484Z,540.2
2023-01-09T03:32:20.249Z,541.1
2023-01-09T03:33:27.082Z,538.7
2023-01-09T03:34:33.805Z,548.5
2023-01-09T03:35:40.620Z,541.4
2023-01-09T03:36:47.421Z,545.1
2023-01-09T03:37:54.195Z,545.2
2023-01-09T03:39:01.093Z,542.1
2023-01-09T03:40:07.812Z,542.4
2023-01-09T03:41:14.510Z,543.2
2023-01-09T03:42:21.320Z,544.2
2023-01-09T03:43:28.077Z,549.2
2023-01-09T03:44:34.924Z,539.3
2023-01-09T03:47:52.998Z,543
2023-01-09T03:49:31.826Z,541.8
2023-01-09T03:51:18.657Z,536.3
2023-01-09T03:52:25.903Z,541.5
2023-01-09T03:53:33.143Z,541.9
2023-01-09T03:55:11.217Z,544.1
2023-01-09T03:56:17.712Z,540.2
2023-01-09T03:57:24.289Z,541.9
2023-01-09T03:58:30.851Z,542.2
2023-01-09T03:59:37.424Z,541
2023-01-09T04:00:44.048Z,539.6
2023-01-09T04:01:50.454Z,543.8
2023-01-09T04:02:56.994Z,546.2
2023-01-09T04:04:03.564Z,545.8
2023-01-09T04:05:10.083Z,541
2023-01-09T04:06:16.609Z,542.2
2023-01-09T04:07:23.145Z,542.2
2023-01-09T04:08:29.710Z,533.2
2023-01-09T04:09:36.321Z,544.6
2023-01-09T04:10:42.784Z,541.8
2023-01-09T04:11:49.338Z,542.4
2023-01-09T04:12:55.883Z,539.1
2023-01-09T04:14:02.468Z,538.1
2023-01-09T04:15:08.963Z,540.5
2023-01-09T04:16:15.540Z,543.2
2023-01-09T04:17:22.068Z,537.2
2023-01-09T04:18:28.594Z,532.9
2023-01-09T04:19:35.152Z,537.1
2023-01-09T04:20:41.692Z,544.8
2023-01-09T04:21:48.259Z,542
2023-01-09T04:22:55.020Z,541.9
2023-01-09T04:24:01.820Z,547.6
2023-01-09T04:25:08.580Z,546.2
2023-01-09T04:26:15.368Z,537.6
2023-01-09T04:27:22.145Z,539
2023-01-09T04:28:28.946Z,542.6
2023-01-09T04:29:35.707Z,541.1
2023-01-09T04:30:42.501Z,538.6
2023-01-09T04:31:49.273Z,539.4
2023-01-09T04:32:56.056Z,535.3
2023-01-09T04:34:02.916Z,537.8
2023-01-09T04:35:09.669Z,540.6
2023-01-09T04:36:16.395Z,535.7
2023-01-09T04:39:34.631Z,534.9
2023-01-09T04:41:12.856Z,539.9
2023-01-09T04:42:19.630Z,542.1
2023-01-09T04:43:26.419Z,544.5
2023-01-09T04:44:33.236Z,541.9
2023-01-09T04:45:39.981Z,536.9
2023-01-09T04:46:46.783Z,541.6
2023-01-09T04:47:53.558Z,540
2023-01-09T04:49:00.336Z,537.1
2023-01-09T04:50:07.126Z,539.2
2023-01-09T04:51:13.896Z,542.6
2023-01-09T04:52:20.680Z,544.6
2023-01-09T04:53:27.457Z,542.8
2023-01-09T04:54:34.252Z,542.7
2023-01-09T04:55:41.025Z,541.5
2023-01-09T04:56:47.827Z,543.2
2023-01-09T04:57:54.583Z,543.1
2023-01-09T04:59:01.388Z,546.3
2023-01-09T05:00:08.153Z,549.5
2023-01-09T05:01:14.958Z,546.4
2023-01-09T05:02:21.712Z,537
2023-01-09T05:03:28.495Z,548
2023-01-09T05:04:35.311Z,546.3
2023-01-09T05:05:42.072Z,543.4
2023-01-09T05:06:48.845Z,542.2
2023-01-09T05:07:55.619Z,540.7
2023-01-09T05:10:07.914Z,541.3
2023-01-09T05:11:14.240Z,539.8
2023-01-09T05:12:21.054Z,545.7
2023-01-09T05:13:27.824Z,537.6
2023-01-09T05:14:34.618Z,539.4
2023-01-09T05:15:41.388Z,547.2
2023-01-09T05:16:48.174Z,543.1
2023-01-09T05:17:54.949Z,547.6
2023-01-09T05:19:01.735Z,541.1
2023-01-09T05:20:08.540Z,550
2023-01-09T05:21:15.307Z,549.6
2023-01-09T05:22:22.087Z,545.8
2023-01-09T05:23:28.869Z,543.7
2023-01-09T05:24:35.654Z,541.2
2023-01-09T05:25:42.448Z,544.9
2023-01-09T05:26:49.196Z,543.1
2023-01-09T05:27:55.992Z,537
2023-01-09T05:29:02.776Z,543.8
2023-01-09T05:30:09.549Z,540.4
2023-01-09T05:31:16.336Z,542.8
2023-01-09T05:32:23.121Z,546.2
2023-01-09T05:33:29.898Z,537.1
2023-01-09T05:34:36.685Z,539.5
2023-01-09T05:35:43.479Z,549.1
2023-01-09T05:36:50.256Z,545.4
2023-01-09T05:37:57.034Z,541.1
2023-01-09T05:39:04.325Z,544.6
2023-01-09T05:40:42.350Z,537.1
2023-01-09T05:41:49.088Z,544.8
2023-01-09T05:42:55.439Z,536.5
2023-01-09T05:44:01.990Z,540.8
2023-01-09T05:45:08.531Z,537.5
2023-01-09T05:46:15.067Z,540.6
2023-01-09T05:47:21.614Z,536.8
2023-01-09T05:48:28.151Z,534.3
2023-01-09T05:49:34.693Z,539.6
2023-01-09T05:50:41.254Z,541.5
2023-01-09T05:51:47.794Z,537.5
2023-01-09T05:52:54.527Z,541.2
2023-01-09T05:54:00.880Z,542.7
2023-01-09T05:55:07.434Z,544.7
2023-01-09T05:56:13.975Z,541.3
2023-01-09T05:57:20.526Z,542.2
2023-01-09T05:58:27.057Z,540.7
2023-01-09T05:59:33.607Z,544
2023-01-09T06:00:40.174Z,539
2023-01-09T06:01:46.700Z,540.3
2023-01-09T06:02:53.244Z,544.9
2023-01-09T06:03:59.796Z,541.7
2023-01-09T06:05:06.376Z,539.3
2023-01-09T06:06:12.877Z,543.1
2023-01-09T06:07:19.442Z,544.6
2023-01-09T06:08:26.165Z,543.1
2023-01-09T06:09:32.933Z,542.5
2023-01-09T06:10:39.712Z,542.3
2023-01-09T06:11:46.775Z,538.6
2023-01-09T06:12:53.291Z,537.5
2023-01-09T06:14:00.092Z,541.5
2023-01-09T06:15:06.841Z,539.9
2023-01-09T06:16:13.633Z,541.8
2023-01-09T06:17:20.459Z,540.7
2023-01-09T06:18:27.186Z,547.5
2023-01-09T06:19:33.992Z,543.3
2023-01-09T06:20:40.783Z,537.5
2023-01-09T06:21:47.532Z,542.9
2023-01-09T06:25:05.671Z,541.8
2023-01-09T06:26:40.515Z,546.9
2023-01-09T06:27:47.083Z,538
2023-01-09T06:28:53.605Z,546.4
2023-01-09T06:30:00.201Z,542.3
2023-01-09T06:31:06.698Z,541.3
2023-01-09T06:32:13.282Z,542.6
2023-01-09T06:33:19.801Z,542.6
2023-01-09T06:34:26.322Z,540.5
2023-01-09T06:35:32.865Z,539.6
2023-01-09T06:37:45.957Z,539.6
2023-01-09T06:38:52.503Z,541.5
2023-01-09T06:39:59.048Z,540.1
2023-01-09T06:41:05.589Z,540.1
2023-01-09T06:42:12.140Z,549.1
2023-01-09T06:43:18.690Z,544.7
2023-01-09T06:44:25.224Z,546.5
2023-01-09T06:45:31.775Z,543
2023-01-09T06:46:38.326Z,537.9
2023-01-09T06:47:44.878Z,540.8
2023-01-09T06:48:51.412Z,538.8
2023-01-09T06:49:57.978Z,545.9
2023-01-09T06:51:04.511Z,540.7
2023-01-09T06:52:11.052Z,543.2
2023-01-09T06:53:17.626Z,545.1
2023-01-09T06:54:24.323Z,544.9
2023-01-09T06:55:31.115Z,547.4
2023-01-09T06:56:37.888Z,546.3
2023-01-09T06:57:44.671Z,542.8
2023-01-09T06:58:51.448Z,547.7
2023-01-09T06:59:58.234Z,547.2
2023-01-09T07:01:05.030Z,545.6
2023-01-09T07:02:11.800Z,545.2
2023-01-09T07:03:18.567Z,543.7
2023-01-09T07:04:25.364Z,542.8
2023-01-09T07:05:32.140Z,547.3
2023-01-09T07:06:39.060Z,548
2023-01-09T07:07:45.716Z,539.6
2023-01-09T07:08:53.081Z,540.1
2023-01-09T07:10:30.960Z,542.4
2023-01-09T07:11:37.449Z,540.5
2023-01-09T07:12:44.065Z,547.5
2023-01-09T07:13:50.543Z,541
2023-01-09T07:14:57.146Z,542.2
2023-01-09T07:16:03.701Z,541
2023-01-09T07:17:10.302Z,542.6
2023-01-09T07:18:16.738Z,542.1
2023-01-09T07:19:23.280Z,547.7
2023-01-09T07:20:29.899Z,538.9
2023-01-09T07:21:36.376Z,543.3
2023-01-09T07:22:42.911Z,544.7
2023-01-09T07:23:49.450Z,546.3
2023-01-09T07:24:56.117Z,541.3
2023-01-09T07:26:02.511Z,547.1
2023-01-09T07:27:09.056Z,542.7
2023-01-09T07:28:15.521Z,546.3
2023-01-09T07:29:22.107Z,546
2023-01-09T07:30:28.648Z,541.4
2023-01-09T07:31:35.058Z,539.2
2023-01-09T07:32:41.559Z,539.4
2023-01-09T07:33:48.072Z,546.7
2023-01-09T07:34:54.700Z,549.6
2023-01-09T07:36:01.123Z,548.4
2023-01-09T07:37:07.620Z,542.5
2023-01-09T07:38:14.371Z,537.7
2023-01-09T07:39:21.132Z,546.8
2023-01-09T07:40:27.897Z,539.8
2023-01-09T07:41:34.764Z,543.9
2023-01-09T07:42:41.549Z,541.3
2023-01-09T07:43:48.206Z,545.7
2023-01-09T07:44:55.076Z,545.4
2023-01-09T07:46:01.821Z,541.9
2023-01-09T07:47:08.629Z,547.5
2023-01-09T07:48:15.371Z,548
2023-01-09T07:49:22.030Z,542.3
2023-01-09T07:50:28.815Z,540.1
2023-01-09T07:51:35.558Z,543.6
2023-01-09T07:54:53.692Z,542.4
2023-01-09T07:56:29.316Z,542.8
2023-01-09T07:57:36.552Z,542.3
2023-01-09T07:59:15.269Z,546.3
2023-01-09T08:00:54.004Z,542.1
2023-01-09T08:02:32.821Z,1135.5
2023-01-09T08:04:10.734Z,1135.5
2023-01-09T08:05:17.291Z,1135.5
2023-01-09T08:06:23.754Z,1135.5
2023-01-09T08:07:30.325Z,1135.5
2023-01-09T08:08:36.865Z,1135.5
2023-01-09T08:09:43.230Z,1135.5
2023-01-09T08:10:49.778Z,1135.5
2023-01-09T08:11:56.213Z,1135.5
2023-01-09T08:13:02.721Z,1135.5
2023-01-09T08:14:09.237Z,1135.5
2023-01-09T08:15:15.728Z,1135.5
2023-01-09T08:16:22.208Z,1135.5
2023-01-09T08:17:28.725Z,1135.5
2023-01-09T08:18:35.208Z,1135.5
2023-01-09T08:19:41.707Z,1135.5
2023-01-09T08:20:48.211Z,1135.5
2023-01-09T08:21:54.729Z,1135.5
2023-01-09T08:23:01.221Z,1135.5
2023-01-09T08:24:07.701Z,1135.5
2023-01-09T08:25:14.206Z,1135.5
2023-01-09T08:26:20.726Z,1135.5
2023-01-09T08:28:33.705Z,1135.5
2023-01-09T08:29:40.203Z,1135.5
2023-01-09T08:30:46.740Z,1135.5
2023-01-09T08:31:53.441Z,1135.5
2023-01-09T08:33:00.147Z,1135.5
2023-01-09T08:34:06.846Z,1135.5
2023-01-09T08:35:13.712Z,1135.5
2023-01-09T08:36:20.243Z,1135.5
2023-01-09T08:37:26.956Z,1135.5
2023-01-09T08:38:33.656Z,1135.5
2023-01-09T08:39:40.365Z,1135.5
2023-01-09T08:40:47.066Z,1135.5
2023-01-09T08:41:53.770Z,1135.5
2023-01-09T08:43:00.472Z,1135.5
2023-01-09T08:44:07.163Z,1135.5
2023-01-09T08:45:13.864Z,1135.5
2023-01-09T08:47:53.760Z,1135.5
2023-01-09T08:49:32.490Z,1135.5
2023-01-09T08:51:10.495Z,1135.5
2023-01-09T08:52:17.028Z,1135.5
2023-01-09T08:53:23.493Z,1135.5
2023-01-09T08:54:29.990Z,1135.5
2023-01-09T08:55:36.498Z,1135.5
2023-01-09T08:56:42.991Z,1135.5
2023-01-09T08:57:49.493Z,1135.5
2023-01-09T08:58:56.124Z,1135.5
2023-01-09T09:00:02.498Z,1135.5
2023-01-09T09:01:08.989Z,1135.5
2023-01-09T09:02:15.492Z,1135.5
2023-01-09T09:03:22.068Z,1135.5
2023-01-09T09:04:28.490Z,1135.5
2023-01-09T09:05:35.259Z,1135.5
2023-01-09T09:06:41.487Z,1135.5
2023-01-09T09:07:47.983Z,1135.5
2023-01-09T09:08:54.578Z,1135.5
2023-01-09T09:11:07.520Z,1135.5
2023-01-09T09:12:13.987Z,1135.5
2023-01-09T09:13:20.493Z,1135.5
2023-01-09T09:14:26.989Z,1135.5
2023-01-09T09:15:33.587Z,1135.5
2023-01-09T09:16:40.002Z,1135.5
2023-01-09T09:17:46.490Z,1135.5
2023-01-09T09:18:53.219Z,1135.5
2023-01-09T09:19:59.932Z,1135.5
2023-01-09T09:21:06.665Z,1135.5
2023-01-09T09:22:13.328Z,1135.5
2023-01-09T09:23:20.025Z,1135.5
2023-01-09T09:24:26.734Z,1135.5
2023-01-09T09:25:33.429Z,1135.5
2023-01-09T09:26:40.183Z,1135.5
2023-01-09T09:27:46.845Z,1135.5
2023-01-09T09:28:53.548Z,1135.5
2023-01-09T09:30:00.353Z,1135.5
2023-01-09T09:31:06.941Z,1135.5
2023-01-09T09:32:13.656Z,1135.5
2023-01-09T09:35:31.970Z,1135.5
2023-01-09T09:37:10.093Z,1135.5
2023-01-09T09:38:16.808Z,1135.5
2023-01-09T09:39:23.533Z,1135.5
2023-01-09T09:40:30.217Z,1135.5
2023-01-09T09:41:36.925Z,1135.5
2023-01-09T09:42:43.616Z,1135.5
2023-01-09T09:43:50.322Z,1135.5
2023-01-09T09:44:57.017Z,1135.5
2023-01-09T09:46:03.745Z,1135.5
2023-01-09T09:47:10.435Z,1135.5
2023-01-09T09:48:17.133Z,1135.5
2023-01-09T09:49:23.855Z,1135.5
2023-01-09T09:50:30.544Z,1135.5
2023-01-09T09:51:37.248Z,1135.5
2023-01-09T09:52:43.963Z,1135.5
2023-01-09T09:53:50.682Z,1135.5
2023-01-09T09:54:57.366Z,1135.5
2023-01-09T09:56:04.053Z,1135.5
2023-01-09T09:57:10.759Z,1135.5
2023-01-09T09:58:17.462Z,1135.5
2023-01-09T09:59:24.161Z,1135.5
2023-01-09T10:00:30.870Z,1135.5
2023-01-09T10:01:37.630Z,1135.5
2023-01-09T10:02:44.276Z,1135.5
2023-01-09T10:03:50.968Z,1135.5
2023-01-09T10:06:03.230Z,1135.5
2023-01-09T10:07:10.419Z,1135.5
2023-01-09T10:08:16.461Z,1135.5
2023-01-09T10:09:22.963Z,1135.5
2023-01-09T10:10:29.459Z,1135.5
2023-01-09T10:11:35.960Z,1135.5
2023-01-09T10:12:42.448Z,1135.5
2023-01-09T10:13:48.952Z,1135.5
2023-01-09T10:14:55.476Z,1135.5
2023-01-09T10:16:02.005Z,1135.5
2023-01-09T10:17:08.437Z,1135.5
2023-01-09T10:18:14.996Z,1135.5
2023-01-09T10:19:21.453Z,1135.5
2023-01-09T10:20:27.940Z,1135.5
2023-01-09T10:21:34.441Z,1135.5
2023-01-09T10:22:40.932Z,1135.5
2023-01-09T10:23:47.510Z,1135.5
2023-01-09T10:24:54.073Z,1135.5
2023-01-09T10:26:00.432Z,1135.5
2023-01-09T10:27:07.155Z,1135.5
2023-01-09T10:28:13.615Z,1135.5
2023-01-09T10:29:20.016Z,1135.5
2023-01-09T10:30:26.429Z,1135.5
2023-01-09T10:31:32.931Z,1135.5
2023-01-09T10:32:39.433Z,1135.5
2023-01-09T10:33:45.931Z,1135.5
2023-01-09T10:34:52.432Z,1135.5
2023-01-09T10:35:59.173Z,1135.5
2023-01-09T10:37:05.870Z,1135.5
2023-01-09T10:38:12.591Z,1135.5
2023-01-09T10:39:19.269Z,1135.5
2023-01-09T10:40:25.988Z,1135.5
2023-01-09T10:41:32.686Z,1135.5
2023-01-09T10:42:39.385Z,1135.5
2023-01-09T10:43:46.086Z,1135.5
2023-01-09T10:44:52.806Z,1135.5
2023-01-09T10:45:59.535Z,1135.5
2023-01-09T10:47:06.209Z,1135.5
2023-01-09T10:48:12.894Z,1135.5
2023-01-09T10:49:19.603Z,1135.5
2023-01-09T10:50:26.823Z,1135.5
2023-01-09T10:52:05.538Z,1135.5
2023-01-09T10:53:44.280Z,1135.5
2023-01-09T10:55:23.012Z,1135.5
2023-01-09T10:57:01.241Z,1135.5
2023-01-09T10:58:08.025Z,1135.5
2023-01-09T10:59:14.701Z,1135.5
2023-01-09T11:00:21.377Z,1135.5
2023-01-09T11:01:28.182Z,1135.5
2023-01-09T11:02:34.916Z,1135.5
2023-01-09T11:03:41.622Z,1135.5
2023-01-09T11:04:48.157Z,1135.5
2023-01-09T11:05:54.885Z,1135.5
2023-01-09T11:07:01.564Z,1135.5
2023-01-09T11:08:08.273Z,1135.5
2023-01-09T11:09:14.973Z,1135.5
2023-01-09T11:10:21.690Z,1135.5
2023-01-09T11:11:28.400Z,1135.5
2023-01-09T11:12:35.082Z,1135.5
2023-01-09T11:13:41.782Z,1135.5
2023-01-09T11:14:48.491Z,1135.5
2023-01-09T11:15:55.197Z,1135.5
2023-01-09T11:17:01.900Z,1135.5
2023-01-09T11:18:08.594Z,1135.5
2023-01-09T11:19:15.304Z,1135.5
2023-01-09T11:20:22.002Z,1135.5
2023-01-09T11:21:28.705Z,1135.5
2023-01-09T11:22:35.407Z,1135.5
2023-01-09T11:23:42.113Z,1135.5
2023-01-09T11:25:16.373Z,1135.5
2023-01-09T11:26:55.111Z,1135.5
2023-01-09T11:28:33.405Z,1135.5
2023-01-09T11:29:40.117Z,1135.5
2023-01-09T11:30:46.807Z,1135.5
2023-01-09T11:31:53.518Z,1135.5
2023-01-09T11:33:00.232Z,1135.5
2023-01-09T11:34:06.848Z,1135.5
2023-01-09T11:35:13.571Z,1135.5
2023-01-09T11:36:20.329Z,1135.5
2023-01-09T11:37:26.974Z,1135.5
2023-01-09T11:38:33.673Z,1135.5
2023-01-09T11:39:40.364Z,1135.5
2023-01-09T11:40:47.121Z,1135.5
2023-01-09T11:41:53.792Z,1135.5
2023-01-09T11:43:00.473Z,1135.5
2023-01-09T11:44:07.178Z,1135.5
2023-01-09T11:45:13.876Z,1135.5
2023-01-09T11:46:20.602Z,1135.5
2023-01-09T11:47:27.327Z,1135.5
2023-01-09T11:48:33.998Z,1135.5
2023-01-09T11:49:40.694Z,1135.5
2023-01-09T11:51:54.098Z,1135.5
2023-01-09T11:53:00.799Z,1135.5
2023-01-09T11:54:07.501Z,1135.5
2023-01-09T11:55:14.201Z,1135.5
2023-01-09T11:57:26.482Z,1135.5
2023-01-09T11:59:00.910Z,1135.5
2023-01-09T12:00:07.638Z,1135.5
2023-01-09T12:01:14.315Z,1135.5
2023-01-09T12:02:21.025Z,1135.5
2023-01-09T12:03:27.717Z,1135.5
2023-01-09T12:04:34.423Z,1135.5
2023-01-09T12:05:41.125Z,1135.5
2023-01-09T12:06:47.827Z,1135.5
2023-01-09T12:07:54.535Z,1135.5
2023-01-09T12:09:01.238Z,1135.5
2023-01-09T12:10:07.942Z,1135.5
2023-01-09T12:11:14.645Z,1135.5
2023-01-09T12:12:21.373Z,1135.5
2023-01-09T12:13:28.116Z,1135.5
2023-01-09T12:14:34.751Z,1135.5
2023-01-09T12:15:41.601Z,1135.5
2023-01-09T12:16:48.192Z,1135.5
2023-01-09T12:17:54.860Z,1135.5
2023-01-09T12:19:01.563Z,1135.5
2023-01-09T12:20:08.260Z,1135.5
2023-01-09T12:21:14.967Z,1135.5
2023-01-09T12:23:28.378Z,1135.5
2023-01-09T12:24:35.067Z,1135.5
2023-01-09T12:25:41.778Z,1135.5
2023-01-09T12:27:16.186Z,1135.5
2023-01-09T12:28:54.928Z,1135.5
2023-01-09T12:30:33.741Z,1135.5
2023-01-09T12:32:20.577Z,1135.5
2023-01-09T12:33:55.794Z,1135.5
2023-01-09T12:35:01.818Z,1135.5
2023-01-09T12:36:08.325Z,1135.5
2023-01-09T12:37:14.829Z,1135.5
2023-01-09T12:38:21.331Z,1135.5
2023-01-09T12:39:27.876Z,1135.5
2023-01-09T12:40:34.375Z,1135.5
2023-01-09T12:41:40.876Z,1135.5
2023-01-09T12:42:47.311Z,1135.5
2023-01-09T12:43:53.824Z,1135.5
2023-01-09T12:45:00.313Z,1135.5
2023-01-09T12:46:06.829Z,1135.5
2023-01-09T12:47:13.327Z,1135.5
2023-01-09T12:48:19.828Z,1135.5
2023-01-09T12:49:26.324Z,1135.5
2023-01-09T12:50:32.817Z,1135.5
2023-01-09T12:51:39.312Z,1135.5
2023-01-09T12:52:45.804Z,1135.5
2023-01-09T12:53:52.314Z,1135.5
2023-01-09T12:54:58.825Z,1135.5
2023-01-09T12:56:05.311Z,1135.5
2023-01-09T12:57:11.816Z,1135.5
2023-01-09T12:58:18.307Z,1135.5
2023-01-09T12:59:24.817Z,1135.5
2023-01-09T13:00:31.322Z,1135.5
2023-01-09T13:01:37.823Z,1135.5
2023-01-09T13:02:44.547Z,1135.5
2023-01-09T13:03:51.257Z,1135.5
2023-01-09T13:04:57.969Z,1135.5
2023-01-09T13:06:04.653Z,1135.5
2023-01-09T13:07:11.359Z,1135.5
2023-01-09T13:08:18.060Z,1135.5
2023-01-09T13:09:24.765Z,1135.5
2023-01-09T13:10:31.494Z,1135.5
2023-01-09T13:11:38.163Z,1135.5
2023-01-09T13:12:44.891Z,1135.5
2023-01-09T13:13:51.577Z,1135.5
2023-01-09T13:14:58.280Z,1135.5
2023-01-09T13:16:04.993Z,1135.5
2023-01-09T13:17:12.195Z,1135.5
2023-01-09T13:18:50.926Z,1135.5
2023-01-09T13:20:28.937Z,1135.5
2023-01-09T13:21:35.598Z,1135.5
2023-01-09T13:22:41.929Z,1135.5
2023-01-09T13:23:48.432Z,1135.5
2023-01-09T13:24:54.925Z,1135.5
2023-01-09T13:26:01.424Z,1135.5
2023-01-09T13:27:07.921Z,1135.5
2023-01-09T13:28:14.415Z,1135.5
2023-01-09T13:29:20.927Z,1135.5
2023-01-09T13:30:27.425Z,1135.5
2023-01-09T13:31:33.926Z,1135.5
2023-01-09T13:32:40.428Z,1135.5
2023-01-09T13:33:46.922Z,1135.5
2023-01-09T13:34:53.426Z,1135.5
2023-01-09T13:35:59.924Z,1135.5
2023-01-09T13:37:06.416Z,1135.5
2023-01-09T13:38:12.921Z,1135.5
2023-01-09T13:39:19.423Z,1135.5
2023-01-09T13:40:25.920Z,1135.5
2023-01-09T13:41:32.424Z,1135.5
2023-01-09T13:42:38.919Z,1135.5
2023-01-09T13:43:45.415Z,1135.5
2023-01-09T13:44:52.017Z,1135.5
2023-01-09T13:45:58.424Z,1135.5
2023-01-09T13:47:04.913Z,1135.5
2023-01-09T13:48:11.657Z,1135.5
2023-01-09T13:49:18.375Z,1135.5
2023-01-09T13:50:25.065Z,1135.5
2023-01-09T13:51:31.759Z,1135.5
2023-01-09T13:52:38.468Z,1135.5
2023-01-09T13:53:45.172Z,1135.5
2023-01-09T13:54:51.882Z,1135.5
2023-01-09T13:55:58.577Z,1135.5
2023-01-09T13:57:05.298Z,1135.5
2023-01-09T13:58:11.982Z,1135.5
2023-01-09T13:59:18.685Z,1135.5
2023-01-09T14:00:25.390Z,1135.5
2023-01-09T14:01:32.111Z,1135.5
2023-01-09T14:02:39.307Z,1135.5
2023-01-09T14:04:18.119Z,1135.5
2023-01-09T14:06:04.953Z,1135.5
2023-01-09T14:07:43.191Z,1135.5
2023-01-09T14:08:49.886Z,1135.5
2023-01-09T14:09:56.589Z,1135.5
2023-01-09T14:11:03.295Z,1135.5
2023-01-09T14:12:10.000Z,1135.5
2023-01-09T14:13:16.701Z,1135.5
2023-01-09T14:14:23.408Z,1135.5
2023-01-09T14:15:30.099Z,1135.5
2023-01-09T14:16:36.835Z,1135.5
2023-01-09T14:17:43.522Z,1135.5
2023-01-09T14:18:50.235Z,1135.5
2023-01-09T14:21:03.626Z,1135.5
2023-01-09T14:22:10.329Z,1135.5
2023-01-09T14:24:23.726Z,1135.5
2023-01-09T14:25:30.437Z,1135.5
2023-01-09T14:26:37.137Z,1135.5
2023-01-09T14:27:43.836Z,1135.5
2023-01-09T14:28:50.622Z,1135.5
2023-01-09T14:29:57.360Z,1135.5
2023-01-09T14:31:04.102Z,1135.5
2023-01-09T14:32:10.726Z,1135.5
2023-01-09T14:33:17.355Z,1135.5
2023-01-09T14:34:24.055Z,1135.5
2023-01-09T14:35:57.851Z,1135.5
2023-01-09T14:37:03.880Z,1135.5
2023-01-09T14:38:10.379Z,1135.5
2023-01-09T14:39:16.894Z,1135.5
2023-01-09T14:40:23.381Z,1135.5
2023-01-09T14:41:29.882Z,1135.5
2023-01-09T14:42:36.374Z,1135.5
2023-01-09T14:43:42.882Z,1135.5
2023-01-09T14:44:49.386Z,1135.5
2023-01-09T14:45:55.866Z,1135.5
2023-01-09T14:47:02.378Z,1135.5
2023-01-09T14:48:08.884Z,1135.5
2023-01-09T14:49:15.389Z,1135.5
2023-01-09T14:50:21.885Z,1135.5
2023-01-09T14:51:28.379Z,1135.5
2023-01-09T14:52:34.878Z,1135.5
2023-01-09T14:53:41.375Z,1135.5
2023-01-09T14:54:47.879Z,1135.5
2023-01-09T14:55:54.382Z,1135.5
2023-01-09T14:57:00.876Z,1135.5
2023-01-09T15:00:20.366Z,1135.5